sensor_id;sensor_type;location;lat;lon;timestamp;P1;durP1;ratioP1;P2;durP2;ratioP2
22995;SDS011;11664;49.774;8.650;2023-09-19T00:01:05;9.85;;;9.15;;
22995;SDS011;11664;49.774;8.650;2023-09-19T00:03:34;10.75;;;10.15;;
22995;SDS011;11664;49.774;8.650;2023-09-19T00:06:02;8.38;;;7.97;;
22995;SDS011;11664;49.774;8.650;2023-09-19T00:08:29;8.13;;;7.63;;
22995;SDS011;11664;49.774;8.650;2023-09-19T00:10:55;17.73;;;16.75;;
22995;SDS011;11664;49.774;8.650;2023-09-19T00:13:21;27.60;;;26.17;;
22995;SDS011;11664;49.774;8.650;2023-09-19T00:15:47;13.55;;;12.75;;
22995;SDS011;11664;49.774;8.650;2023-09-19T00:18:16;11.77;;;11.07;;
22995;SDS011;11664;49.774;8.650;2023-09-19T00:20:53;16.95;;;15.95;;
22995;SDS011;11664;49.774;8.650;2023-09-19T00:23:22;18.45;;;17.55;;
22995;SDS011;11664;49.774;8.650;2023-09-19T00:25:48;20.52;;;19.42;;
22995;SDS011;11664;49.774;8.650;2023-09-19T00:28:13;7.68;;;6.93;;
22995;SDS011;11664;49.774;8.650;2023-09-19T00:30:39;9.88;;;9.27;;
22995;SDS011;11664;49.774;8.650;2023-09-19T00:33:07;8.60;;;8.02;;
22995;SDS011;11664;49.774;8.650;2023-09-19T00:35:33;11.13;;;10.55;;
22995;SDS011;11664;49.774;8.650;2023-09-19T00:37:59;9.38;;;8.82;;
22995;SDS011;11664;49.774;8.650;2023-09-19T00:40:25;7.72;;;7.25;;
22995;SDS011;11664;49.774;8.650;2023-09-19T00:42:51;8.32;;;7.93;;
22995;SDS011;11664;49.774;8.650;2023-09-19T00:45:17;11.02;;;10.32;;
22995;SDS011;11664;49.774;8.650;2023-09-19T00:47:44;18.40;;;17.50;;
22995;SDS011;11664;49.774;8.650;2023-09-19T00:50:14;12.18;;;11.38;;
22995;SDS011;11664;49.774;8.650;2023-09-19T00:52:46;12.48;;;10.55;;
22995;SDS011;11664;49.774;8.650;2023-09-19T00:55:12;10.15;;;9.40;;
22995;SDS011;11664;49.774;8.650;2023-09-19T00:57:40;11.77;;;11.05;;
22995;SDS011;11664;49.774;8.650;2023-09-19T01:00:07;9.02;;;8.20;;
22995;SDS011;11664;49.774;8.650;2023-09-19T01:02:36;7.80;;;7.30;;
22995;SDS011;11664;49.774;8.650;2023-09-19T01:05:02;8.65;;;8.15;;
22995;SDS011;11664;49.774;8.650;2023-09-19T01:07:30;8.18;;;7.70;;
22995;SDS011;11664;49.774;8.650;2023-09-19T01:09:58;12.63;;;11.88;;
22995;SDS011;11664;49.774;8.650;2023-09-19T01:15:16;12.65;;;11.93;;
22995;SDS011;11664;49.774;8.650;2023-09-19T01:20:49;17.05;;;15.63;;
22995;SDS011;11664;49.774;8.650;2023-09-19T01:23:22;17.27;;;16.38;;
22995;SDS011;11664;49.774;8.650;2023-09-19T01:26:18;9.80;;;9.27;;
22995;SDS011;11664;49.774;8.650;2023-09-19T01:29:08;6.90;;;6.40;;
22995;SDS011;11664;49.774;8.650;2023-09-19T01:32:01;17.08;;;16.23;;
22995;SDS011;11664;49.774;8.650;2023-09-19T01:34:45;14.40;;;13.27;;
22995;SDS011;11664;49.774;8.650;2023-09-19T01:37:19;11.38;;;10.73;;
22995;SDS011;11664;49.774;8.650;2023-09-19T01:40:04;24.55;;;23.15;;
22995;SDS011;11664;49.774;8.650;2023-09-19T01:42:57;12.45;;;11.35;;
22995;SDS011;11664;49.774;8.650;2023-09-19T01:50:49;19.67;;;18.52;;
22995;SDS011;11664;49.774;8.650;2023-09-19T01:55:55;13.70;;;12.85;;
22995;SDS011;11664;49.774;8.650;2023-09-19T02:00:50;10.35;;;9.77;;
22995;SDS011;11664;49.774;8.650;2023-09-19T02:03:17;13.05;;;11.95;;
22995;SDS011;11664;49.774;8.650;2023-09-19T02:05:48;9.25;;;8.45;;
22995;SDS011;11664;49.774;8.650;2023-09-19T02:08:18;10.00;;;9.35;;
22995;SDS011;11664;49.774;8.650;2023-09-19T02:10:45;29.17;;;27.63;;
22995;SDS011;11664;49.774;8.650;2023-09-19T02:13:20;27.58;;;26.13;;
22995;SDS011;11664;49.774;8.650;2023-09-19T02:15:49;24.23;;;22.67;;
22995;SDS011;11664;49.774;8.650;2023-09-19T02:18:15;18.48;;;17.45;;
22995;SDS011;11664;49.774;8.650;2023-09-19T02:20:40;17.42;;;16.48;;
22995;SDS011;11664;49.774;8.650;2023-09-19T02:23:06;30.63;;;28.88;;
22995;SDS011;11664;49.774;8.650;2023-09-19T02:25:33;16.85;;;15.90;;
22995;SDS011;11664;49.774;8.650;2023-09-19T02:27:58;25.75;;;24.38;;
22995;SDS011;11664;49.774;8.650;2023-09-19T02:30:26;27.75;;;26.27;;
22995;SDS011;11664;49.774;8.650;2023-09-19T02:32:51;14.48;;;13.60;;
22995;SDS011;11664;49.774;8.650;2023-09-19T02:35:17;7.88;;;7.45;;
22995;SDS011;11664;49.774;8.650;2023-09-19T02:37:44;13.43;;;12.73;;
22995;SDS011;11664;49.774;8.650;2023-09-19T02:40:10;12.85;;;12.10;;
22995;SDS011;11664;49.774;8.650;2023-09-19T02:42:46;12.55;;;11.82;;
22995;SDS011;11664;49.774;8.650;2023-09-19T02:45:13;17.17;;;16.30;;
22995;SDS011;11664;49.774;8.650;2023-09-19T02:47:42;36.97;;;35.00;;
22995;SDS011;11664;49.774;8.650;2023-09-19T02:50:08;25.15;;;23.75;;
22995;SDS011;11664;49.774;8.650;2023-09-19T02:52:35;17.92;;;16.92;;
22995;SDS011;11664;49.774;8.650;2023-09-19T02:55:01;13.13;;;12.48;;
22995;SDS011;11664;49.774;8.650;2023-09-19T02:57:27;20.63;;;19.55;;
22995;SDS011;11664;49.774;8.650;2023-09-19T02:59:53;39.88;;;37.83;;
22995;SDS011;11664;49.774;8.650;2023-09-19T03:02:18;12.30;;;11.70;;
22995;SDS011;11664;49.774;8.650;2023-09-19T03:04:44;15.18;;;14.35;;
22995;SDS011;11664;49.774;8.650;2023-09-19T03:07:11;24.92;;;21.50;;
22995;SDS011;11664;49.774;8.650;2023-09-19T03:09:37;21.27;;;20.17;;
22995;SDS011;11664;49.774;8.650;2023-09-19T03:12:03;22.13;;;21.02;;
22995;SDS011;11664;49.774;8.650;2023-09-19T03:14:29;35.78;;;33.85;;
22995;SDS011;11664;49.774;8.650;2023-09-19T03:17:00;29.00;;;27.25;;
22995;SDS011;11664;49.774;8.650;2023-09-19T03:19:25;37.58;;;35.58;;
22995;SDS011;11664;49.774;8.650;2023-09-19T03:21:51;29.35;;;27.65;;
22995;SDS011;11664;49.774;8.650;2023-09-19T03:24:18;22.75;;;21.45;;
22995;SDS011;11664;49.774;8.650;2023-09-19T03:26:44;20.20;;;18.58;;
22995;SDS011;11664;49.774;8.650;2023-09-19T03:29:10;26.35;;;24.88;;
22995;SDS011;11664;49.774;8.650;2023-09-19T03:31:37;31.25;;;29.65;;
22995;SDS011;11664;49.774;8.650;2023-09-19T03:34:03;40.47;;;38.40;;
22995;SDS011;11664;49.774;8.650;2023-09-19T03:36:29;51.70;;;49.05;;
22995;SDS011;11664;49.774;8.650;2023-09-19T03:38:55;51.72;;;49.03;;
22995;SDS011;11664;49.774;8.650;2023-09-19T03:41:20;46.47;;;44.13;;
22995;SDS011;11664;49.774;8.650;2023-09-19T03:43:46;40.47;;;38.03;;
22995;SDS011;11664;49.774;8.650;2023-09-19T03:46:12;50.30;;;47.75;;
22995;SDS011;11664;49.774;8.650;2023-09-19T03:48:40;43.42;;;41.10;;
22995;SDS011;11664;49.774;8.650;2023-09-19T03:51:07;20.10;;;19.00;;
22995;SDS011;11664;49.774;8.650;2023-09-19T03:53:33;29.13;;;27.63;;
22995;SDS011;11664;49.774;8.650;2023-09-19T03:55:58;41.58;;;39.30;;
22995;SDS011;11664;49.774;8.650;2023-09-19T03:58:25;41.40;;;39.22;;
22995;SDS011;11664;49.774;8.650;2023-09-19T04:00:53;35.88;;;33.83;;
22995;SDS011;11664;49.774;8.650;2023-09-19T04:03:20;50.35;;;47.70;;
22995;SDS011;11664;49.774;8.650;2023-09-19T04:05:46;84.90;;;80.22;;
22995;SDS011;11664;49.774;8.650;2023-09-19T04:08:15;53.83;;;50.95;;
22995;SDS011;11664;49.774;8.650;2023-09-19T04:10:43;63.03;;;59.40;;
22995;SDS011;11664;49.774;8.650;2023-09-19T04:13:10;47.65;;;45.08;;
22995;SDS011;11664;49.774;8.650;2023-09-19T04:15:36;42.35;;;39.97;;
22995;SDS011;11664;49.774;8.650;2023-09-19T04:18:02;148.70;;;140.80;;
22995;SDS011;11664;49.774;8.650;2023-09-19T04:20:28;153.68;;;145.65;;
22995;SDS011;11664;49.774;8.650;2023-09-19T04:22:54;140.23;;;132.80;;
22995;SDS011;11664;49.774;8.650;2023-09-19T04:25:20;161.45;;;153.30;;
22995;SDS011;11664;49.774;8.650;2023-09-19T04:27:45;109.90;;;104.03;;
22995;SDS011;11664;49.774;8.650;2023-09-19T04:30:11;154.68;;;146.13;;
22995;SDS011;11664;49.774;8.650;2023-09-19T04:32:40;104.70;;;98.70;;
22995;SDS011;11664;49.774;8.650;2023-09-19T04:35:06;139.30;;;131.68;;
22995;SDS011;11664;49.774;8.650;2023-09-19T04:37:33;48.42;;;45.58;;
22995;SDS011;11664;49.774;8.650;2023-09-19T04:40:06;30.08;;;28.40;;
22995;SDS011;11664;49.774;8.650;2023-09-19T04:42:37;51.08;;;48.40;;
22995;SDS011;11664;49.774;8.650;2023-09-19T04:45:06;52.67;;;49.65;;
22995;SDS011;11664;49.774;8.650;2023-09-19T04:47:34;34.40;;;32.33;;
22995;SDS011;11664;49.774;8.650;2023-09-19T04:50:00;71.00;;;66.93;;
22995;SDS011;11664;49.774;8.650;2023-09-19T04:52:26;79.65;;;75.28;;
22995;SDS011;11664;49.774;8.650;2023-09-19T04:54:51;73.65;;;69.70;;
22995;SDS011;11664;49.774;8.650;2023-09-19T04:57:17;39.08;;;36.90;;
22995;SDS011;11664;49.774;8.650;2023-09-19T04:59:43;39.97;;;37.78;;
22995;SDS011;11664;49.774;8.650;2023-09-19T05:02:08;56.80;;;53.47;;
22995;SDS011;11664;49.774;8.650;2023-09-19T05:04:34;47.47;;;44.78;;
22995;SDS011;11664;49.774;8.650;2023-09-19T05:07:00;37.80;;;35.60;;
22995;SDS011;11664;49.774;8.650;2023-09-19T05:09:28;53.75;;;50.90;;
22995;SDS011;11664;49.774;8.650;2023-09-19T05:11:54;116.15;;;109.63;;
22995;SDS011;11664;49.774;8.650;2023-09-19T05:14:19;24.58;;;23.20;;
22995;SDS011;11664;49.774;8.650;2023-09-19T05:16:46;25.73;;;24.13;;
22995;SDS011;11664;49.774;8.650;2023-09-19T05:19:12;22.58;;;21.02;;
22995;SDS011;11664;49.774;8.650;2023-09-19T05:21:37;17.67;;;16.63;;
22995;SDS011;11664;49.774;8.650;2023-09-19T05:24:06;32.47;;;30.63;;
22995;SDS011;11664;49.774;8.650;2023-09-19T05:26:32;79.57;;;75.00;;
22995;SDS011;11664;49.774;8.650;2023-09-19T05:28:57;99.35;;;93.93;;
22995;SDS011;11664;49.774;8.650;2023-09-19T05:31:23;92.72;;;87.88;;
22995;SDS011;11664;49.774;8.650;2023-09-19T05:33:49;26.75;;;25.33;;
22995;SDS011;11664;49.774;8.650;2023-09-19T05:36:15;52.53;;;49.55;;
22995;SDS011;11664;49.774;8.650;2023-09-19T05:38:40;84.72;;;79.88;;
22995;SDS011;11664;49.774;8.650;2023-09-19T05:41:07;36.10;;;33.95;;
22995;SDS011;11664;49.774;8.650;2023-09-19T05:43:34;28.17;;;26.42;;
22995;SDS011;11664;49.774;8.650;2023-09-19T05:46:02;30.23;;;28.55;;
22995;SDS011;11664;49.774;8.650;2023-09-19T05:48:28;29.67;;;27.88;;
22995;SDS011;11664;49.774;8.650;2023-09-19T05:50:54;20.63;;;19.25;;
22995;SDS011;11664;49.774;8.650;2023-09-19T05:53:19;12.77;;;12.05;;
22995;SDS011;11664;49.774;8.650;2023-09-19T05:55:45;29.88;;;27.98;;
22995;SDS011;11664;49.774;8.650;2023-09-19T05:58:11;24.40;;;23.00;;
22995;SDS011;11664;49.774;8.650;2023-09-19T06:00:39;18.83;;;17.60;;
22995;SDS011;11664;49.774;8.650;2023-09-19T06:03:06;48.85;;;46.03;;
22995;SDS011;11664;49.774;8.650;2023-09-19T06:05:33;78.18;;;74.13;;
22995;SDS011;11664;49.774;8.650;2023-09-19T06:07:58;57.17;;;54.17;;
22995;SDS011;11664;49.774;8.650;2023-09-19T06:10:25;18.90;;;17.63;;
22995;SDS011;11664;49.774;8.650;2023-09-19T06:12:51;17.60;;;16.50;;
22995;SDS011;11664;49.774;8.650;2023-09-19T06:15:16;100.88;;;95.15;;
22995;SDS011;11664;49.774;8.650;2023-09-19T06:17:54;76.22;;;72.10;;
22995;SDS011;11664;49.774;8.650;2023-09-19T06:20:20;74.65;;;70.63;;
22995;SDS011;11664;49.774;8.650;2023-09-19T06:22:47;43.40;;;40.95;;
22995;SDS011;11664;49.774;8.650;2023-09-19T06:25:13;36.13;;;33.67;;
22995;SDS011;11664;49.774;8.650;2023-09-19T06:27:44;16.88;;;15.68;;
22995;SDS011;11664;49.774;8.650;2023-09-19T06:30:11;23.88;;;22.52;;
22995;SDS011;11664;49.774;8.650;2023-09-19T06:32:38;33.35;;;31.45;;
22995;SDS011;11664;49.774;8.650;2023-09-19T06:35:04;39.65;;;37.10;;
22995;SDS011;11664;49.774;8.650;2023-09-19T06:37:33;40.20;;;38.15;;
22995;SDS011;11664;49.774;8.650;2023-09-19T06:39:59;14.68;;;13.82;;
22995;SDS011;11664;49.774;8.650;2023-09-19T06:42:25;10.63;;;9.73;;
22995;SDS011;11664;49.774;8.650;2023-09-19T06:44:50;8.93;;;8.40;;
22995;SDS011;11664;49.774;8.650;2023-09-19T06:47:16;21.10;;;19.80;;
22995;SDS011;11664;49.774;8.650;2023-09-19T06:49:42;15.63;;;14.40;;
22995;SDS011;11664;49.774;8.650;2023-09-19T06:52:10;17.17;;;16.25;;
22995;SDS011;11664;49.774;8.650;2023-09-19T06:54:36;17.30;;;16.35;;
22995;SDS011;11664;49.774;8.650;2023-09-19T06:57:02;14.40;;;13.43;;
22995;SDS011;11664;49.774;8.650;2023-09-19T06:59:28;14.70;;;13.88;;
22995;SDS011;11664;49.774;8.650;2023-09-19T07:01:53;7.53;;;6.97;;
22995;SDS011;11664;49.774;8.650;2023-09-19T07:04:19;6.70;;;6.15;;
22995;SDS011;11664;49.774;8.650;2023-09-19T07:06:51;5.57;;;5.15;;
22995;SDS011;11664;49.774;8.650;2023-09-19T07:09:17;5.85;;;4.47;;
22995;SDS011;11664;49.774;8.650;2023-09-19T07:11:44;5.82;;;5.32;;
22995;SDS011;11664;49.774;8.650;2023-09-19T07:14:10;9.15;;;5.72;;
22995;SDS011;11664;49.774;8.650;2023-09-19T07:16:38;5.63;;;4.80;;
22995;SDS011;11664;49.774;8.650;2023-09-19T07:19:05;7.38;;;6.70;;
22995;SDS011;11664;49.774;8.650;2023-09-19T07:21:31;9.13;;;8.52;;
22995;SDS011;11664;49.774;8.650;2023-09-19T07:23:59;12.50;;;11.68;;
22995;SDS011;11664;49.774;8.650;2023-09-19T07:26:25;18.30;;;16.80;;
22995;SDS011;11664;49.774;8.650;2023-09-19T07:28:52;9.25;;;8.43;;
22995;SDS011;11664;49.774;8.650;2023-09-19T07:31:18;4.05;;;3.80;;
22995;SDS011;11664;49.774;8.650;2023-09-19T07:33:43;4.82;;;4.20;;
22995;SDS011;11664;49.774;8.650;2023-09-19T07:36:10;6.20;;;4.20;;
22995;SDS011;11664;49.774;8.650;2023-09-19T07:38:38;3.88;;;3.58;;
22995;SDS011;11664;49.774;8.650;2023-09-19T07:41:04;6.35;;;5.95;;
22995;SDS011;11664;49.774;8.650;2023-09-19T07:43:30;6.25;;;5.75;;
22995;SDS011;11664;49.774;8.650;2023-09-19T07:45:56;7.18;;;6.78;;
22995;SDS011;11664;49.774;8.650;2023-09-19T07:48:22;8.02;;;7.30;;
22995;SDS011;11664;49.774;8.650;2023-09-19T07:50:49;7.45;;;6.97;;
22995;SDS011;11664;49.774;8.650;2023-09-19T07:53:14;6.45;;;5.60;;
22995;SDS011;11664;49.774;8.650;2023-09-19T07:55:42;6.25;;;5.72;;
22995;SDS011;11664;49.774;8.650;2023-09-19T07:58:08;6.30;;;5.32;;
22995;SDS011;11664;49.774;8.650;2023-09-19T08:00:34;5.32;;;5.03;;
22995;SDS011;11664;49.774;8.650;2023-09-19T08:03:00;5.53;;;4.60;;
22995;SDS011;11664;49.774;8.650;2023-09-19T08:05:26;5.13;;;4.63;;
22995;SDS011;11664;49.774;8.650;2023-09-19T08:07:52;4.90;;;4.60;;
22995;SDS011;11664;49.774;8.650;2023-09-19T08:10:21;5.25;;;4.88;;
22995;SDS011;11664;49.774;8.650;2023-09-19T08:12:47;4.90;;;4.60;;
22995;SDS011;11664;49.774;8.650;2023-09-19T08:15:18;6.32;;;5.53;;
22995;SDS011;11664;49.774;8.650;2023-09-19T08:17:45;7.32;;;6.28;;
22995;SDS011;11664;49.774;8.650;2023-09-19T08:20:11;5.32;;;4.68;;
22995;SDS011;11664;49.774;8.650;2023-09-19T08:22:50;7.35;;;5.85;;
22995;SDS011;11664;49.774;8.650;2023-09-19T08:25:20;6.38;;;5.40;;
22995;SDS011;11664;49.774;8.650;2023-09-19T08:27:47;5.32;;;4.53;;
22995;SDS011;11664;49.774;8.650;2023-09-19T08:30:13;4.70;;;4.25;;
22995;SDS011;11664;49.774;8.650;2023-09-19T08:32:49;4.47;;;4.18;;
22995;SDS011;11664;49.774;8.650;2023-09-19T08:35:15;5.00;;;3.60;;
22995;SDS011;11664;49.774;8.650;2023-09-19T08:37:42;7.03;;;4.82;;
22995;SDS011;11664;49.774;8.650;2023-09-19T08:40:10;4.63;;;4.32;;
22995;SDS011;11664;49.774;8.650;2023-09-19T08:42:47;6.70;;;5.82;;
22995;SDS011;11664;49.774;8.650;2023-09-19T08:45:18;5.07;;;4.68;;
22995;SDS011;11664;49.774;8.650;2023-09-19T08:50:26;5.95;;;5.55;;
22995;SDS011;11664;49.774;8.650;2023-09-19T08:52:53;5.50;;;5.13;;
22995;SDS011;11664;49.774;8.650;2023-09-19T08:55:21;6.35;;;5.88;;
22995;SDS011;11664;49.774;8.650;2023-09-19T08:57:52;8.70;;;8.00;;
22995;SDS011;11664;49.774;8.650;2023-09-19T09:00:23;7.40;;;6.90;;
22995;SDS011;11664;49.774;8.650;2023-09-19T09:02:49;8.60;;;8.00;;
22995;SDS011;11664;49.774;8.650;2023-09-19T09:05:15;5.95;;;5.57;;
22995;SDS011;11664;49.774;8.650;2023-09-19T09:07:47;6.57;;;5.85;;
22995;SDS011;11664;49.774;8.650;2023-09-19T09:10:16;6.78;;;6.18;;
22995;SDS011;11664;49.774;8.650;2023-09-19T09:12:43;6.07;;;5.78;;
22995;SDS011;11664;49.774;8.650;2023-09-19T09:15:09;6.22;;;5.72;;
22995;SDS011;11664;49.774;8.650;2023-09-19T09:17:37;5.50;;;5.05;;
22995;SDS011;11664;49.774;8.650;2023-09-19T09:20:03;6.80;;;6.20;;
22995;SDS011;11664;49.774;8.650;2023-09-19T09:22:33;6.55;;;5.53;;
22995;SDS011;11664;49.774;8.650;2023-09-19T09:24:58;5.20;;;4.95;;
22995;SDS011;11664;49.774;8.650;2023-09-19T09:27:28;9.70;;;8.98;;
22995;SDS011;11664;49.774;8.650;2023-09-19T09:29:54;9.02;;;8.13;;
22995;SDS011;11664;49.774;8.650;2023-09-19T09:34:53;7.72;;;7.13;;
22995;SDS011;11664;49.774;8.650;2023-09-19T09:37:19;7.30;;;6.00;;
22995;SDS011;11664;49.774;8.650;2023-09-19T09:48:02;6.07;;;5.60;;
22995;SDS011;11664;49.774;8.650;2023-09-19T09:50:35;5.75;;;5.35;;
22995;SDS011;11664;49.774;8.650;2023-09-19T09:55:57;4.35;;;4.05;;
22995;SDS011;11664;49.774;8.650;2023-09-19T09:58:38;5.20;;;4.55;;
22995;SDS011;11664;49.774;8.650;2023-09-19T10:01:17;6.47;;;5.90;;
22995;SDS011;11664;49.774;8.650;2023-09-19T10:03:43;5.47;;;5.07;;
22995;SDS011;11664;49.774;8.650;2023-09-19T10:06:14;4.88;;;4.53;;
22995;SDS011;11664;49.774;8.650;2023-09-19T10:09:00;3.78;;;3.50;;
22995;SDS011;11664;49.774;8.650;2023-09-19T10:11:30;4.25;;;3.83;;
22995;SDS011;11664;49.774;8.650;2023-09-19T10:13:57;5.88;;;3.45;;
22995;SDS011;11664;49.774;8.650;2023-09-19T10:16:29;3.33;;;3.13;;
22995;SDS011;11664;49.774;8.650;2023-09-19T10:18:57;3.88;;;3.53;;
22995;SDS011;11664;49.774;8.650;2023-09-19T10:21:26;8.48;;;4.43;;
22995;SDS011;11664;49.774;8.650;2023-09-19T10:23:55;3.90;;;3.60;;
22995;SDS011;11664;49.774;8.650;2023-09-19T10:26:24;6.85;;;6.25;;
22995;SDS011;11664;49.774;8.650;2023-09-19T10:28:54;6.15;;;4.10;;
22995;SDS011;11664;49.774;8.650;2023-09-19T10:31:20;5.20;;;4.75;;
22995;SDS011;11664;49.774;8.650;2023-09-19T10:33:49;6.00;;;4.25;;
22995;SDS011;11664;49.774;8.650;2023-09-19T10:36:15;3.83;;;3.53;;
22995;SDS011;11664;49.774;8.650;2023-09-19T10:38:43;6.78;;;4.10;;
22995;SDS011;11664;49.774;8.650;2023-09-19T10:41:11;5.45;;;3.70;;
22995;SDS011;11664;49.774;8.650;2023-09-19T10:43:41;4.85;;;3.50;;
22995;SDS011;11664;49.774;8.650;2023-09-19T10:46:09;10.02;;;5.10;;
22995;SDS011;11664;49.774;8.650;2023-09-19T10:48:37;5.00;;;4.28;;
22995;SDS011;11664;49.774;8.650;2023-09-19T10:51:09;6.55;;;4.32;;
22995;SDS011;11664;49.774;8.650;2023-09-19T10:53:41;4.15;;;3.85;;
22995;SDS011;11664;49.774;8.650;2023-09-19T10:56:27;3.85;;;3.65;;
22995;SDS011;11664;49.774;8.650;2023-09-19T10:59:20;7.75;;;3.97;;
22995;SDS011;11664;49.774;8.650;2023-09-19T11:01:47;6.10;;;4.68;;
22995;SDS011;11664;49.774;8.650;2023-09-19T11:04:21;7.13;;;3.42;;
22995;SDS011;11664;49.774;8.650;2023-09-19T11:07:03;5.35;;;5.03;;
22995;SDS011;11664;49.774;8.650;2023-09-19T11:09:45;5.97;;;4.80;;
22995;SDS011;11664;49.774;8.650;2023-09-19T11:14:54;5.35;;;4.85;;
22995;SDS011;11664;49.774;8.650;2023-09-19T11:30:43;5.15;;;3.40;;
22995;SDS011;11664;49.774;8.650;2023-09-19T11:43:49;20.38;;;19.17;;
22995;SDS011;11664;49.774;8.650;2023-09-19T11:46:20;16.50;;;15.57;;
22995;SDS011;11664;49.774;8.650;2023-09-19T11:48:49;10.80;;;10.20;;
22995;SDS011;11664;49.774;8.650;2023-09-19T11:51:16;11.32;;;10.52;;
22995;SDS011;11664;49.774;8.650;2023-09-19T11:53:51;9.23;;;8.52;;
22995;SDS011;11664;49.774;8.650;2023-09-19T11:56:18;13.63;;;12.90;;
22995;SDS011;11664;49.774;8.650;2023-09-19T11:58:46;11.82;;;11.20;;
22995;SDS011;11664;49.774;8.650;2023-09-19T12:01:14;6.70;;;6.13;;
22995;SDS011;11664;49.774;8.650;2023-09-19T12:06:14;9.10;;;8.38;;
22995;SDS011;11664;49.774;8.650;2023-09-19T12:08:41;5.32;;;4.78;;
22995;SDS011;11664;49.774;8.650;2023-09-19T12:11:11;5.45;;;4.75;;
22995;SDS011;11664;49.774;8.650;2023-09-19T12:13:41;5.22;;;4.93;;
22995;SDS011;11664;49.774;8.650;2023-09-19T12:16:15;4.47;;;4.18;;
22995;SDS011;11664;49.774;8.650;2023-09-19T12:18:42;12.75;;;12.07;;
22995;SDS011;11664;49.774;8.650;2023-09-19T12:21:32;14.00;;;13.25;;
22995;SDS011;11664;49.774;8.650;2023-09-19T12:24:13;13.82;;;13.00;;
22995;SDS011;11664;49.774;8.650;2023-09-19T12:26:39;9.93;;;8.90;;
22995;SDS011;11664;49.774;8.650;2023-09-19T12:29:16;7.93;;;6.70;;
22995;SDS011;11664;49.774;8.650;2023-09-19T12:31:49;6.30;;;5.95;;
22995;SDS011;11664;49.774;8.650;2023-09-19T12:34:16;12.90;;;12.23;;
22995;SDS011;11664;49.774;8.650;2023-09-19T12:37:03;5.97;;;5.47;;
22995;SDS011;11664;49.774;8.650;2023-09-19T12:39:48;5.63;;;5.22;;
22995;SDS011;11664;49.774;8.650;2023-09-19T12:42:20;7.38;;;6.85;;
22995;SDS011;11664;49.774;8.650;2023-09-19T12:44:53;7.50;;;7.10;;
22995;SDS011;11664;49.774;8.650;2023-09-19T12:47:22;5.60;;;5.15;;
22995;SDS011;11664;49.774;8.650;2023-09-19T12:52:50;5.40;;;5.03;;
22995;SDS011;11664;49.774;8.650;2023-09-19T13:00:32;4.85;;;4.55;;
22995;SDS011;11664;49.774;8.650;2023-09-19T13:05:58;3.70;;;3.35;;
22995;SDS011;11664;49.774;8.650;2023-09-19T13:10:59;3.60;;;3.30;;
22995;SDS011;11664;49.774;8.650;2023-09-19T13:13:25;4.03;;;3.72;;
22995;SDS011;11664;49.774;8.650;2023-09-19T13:15:52;4.30;;;4.00;;
22995;SDS011;11664;49.774;8.650;2023-09-19T13:18:18;6.88;;;6.43;;
22995;SDS011;11664;49.774;8.650;2023-09-19T13:21:05;3.80;;;3.50;;
22995;SDS011;11664;49.774;8.650;2023-09-19T13:23:47;3.63;;;3.42;;
22995;SDS011;11664;49.774;8.650;2023-09-19T13:26:16;4.65;;;3.42;;
22995;SDS011;11664;49.774;8.650;2023-09-19T13:28:42;4.22;;;3.92;;
22995;SDS011;11664;49.774;8.650;2023-09-19T13:31:09;3.72;;;3.55;;
22995;SDS011;11664;49.774;8.650;2023-09-19T13:33:42;3.85;;;3.60;;
22995;SDS011;11664;49.774;8.650;2023-09-19T13:36:09;2.80;;;2.63;;
22995;SDS011;11664;49.774;8.650;2023-09-19T13:38:34;4.45;;;4.15;;
22995;SDS011;11664;49.774;8.650;2023-09-19T13:41:00;3.72;;;3.53;;
22995;SDS011;11664;49.774;8.650;2023-09-19T13:43:26;4.10;;;3.83;;
22995;SDS011;11664;49.774;8.650;2023-09-19T13:45:52;10.57;;;3.15;;
22995;SDS011;11664;49.774;8.650;2023-09-19T13:48:18;2.83;;;2.63;;
22995;SDS011;11664;49.774;8.650;2023-09-19T13:50:46;4.03;;;3.25;;
22995;SDS011;11664;49.774;8.650;2023-09-19T13:53:13;3.58;;;3.03;;
22995;SDS011;11664;49.774;8.650;2023-09-19T13:55:38;3.65;;;3.45;;
22995;SDS011;11664;49.774;8.650;2023-09-19T13:58:05;2.95;;;2.75;;
22995;SDS011;11664;49.774;8.650;2023-09-19T14:00:32;9.02;;;3.50;;
22995;SDS011;11664;49.774;8.650;2023-09-19T14:02:59;4.55;;;3.03;;
22995;SDS011;11664;49.774;8.650;2023-09-19T14:05:26;4.15;;;3.70;;
22995;SDS011;11664;49.774;8.650;2023-09-19T14:07:53;3.42;;;3.22;;
22995;SDS011;11664;49.774;8.650;2023-09-19T14:10:20;3.47;;;3.08;;
22995;SDS011;11664;49.774;8.650;2023-09-19T14:12:46;3.55;;;3.35;;
22995;SDS011;11664;49.774;8.650;2023-09-19T14:15:12;3.65;;;3.35;;
22995;SDS011;11664;49.774;8.650;2023-09-19T14:17:39;4.38;;;4.07;;
22995;SDS011;11664;49.774;8.650;2023-09-19T14:20:09;5.15;;;4.75;;
22995;SDS011;11664;49.774;8.650;2023-09-19T14:22:36;6.13;;;5.75;;
22995;SDS011;11664;49.774;8.650;2023-09-19T14:25:01;4.80;;;4.50;;
22995;SDS011;11664;49.774;8.650;2023-09-19T14:27:30;4.78;;;4.38;;
22995;SDS011;11664;49.774;8.650;2023-09-19T14:29:56;3.17;;;2.97;;
22995;SDS011;11664;49.774;8.650;2023-09-19T14:32:22;3.30;;;3.10;;
22995;SDS011;11664;49.774;8.650;2023-09-19T14:34:48;2.85;;;2.75;;
22995;SDS011;11664;49.774;8.650;2023-09-19T14:37:14;2.67;;;2.58;;
22995;SDS011;11664;49.774;8.650;2023-09-19T14:39:41;3.60;;;3.40;;
22995;SDS011;11664;49.774;8.650;2023-09-19T14:42:10;4.55;;;4.25;;
22995;SDS011;11664;49.774;8.650;2023-09-19T14:44:36;4.53;;;4.25;;
22995;SDS011;11664;49.774;8.650;2023-09-19T14:47:04;4.57;;;4.38;;
22995;SDS011;11664;49.774;8.650;2023-09-19T14:49:33;6.68;;;3.78;;
22995;SDS011;11664;49.774;8.650;2023-09-19T14:51:59;4.20;;;3.90;;
22995;SDS011;11664;49.774;8.650;2023-09-19T14:54:28;4.25;;;4.05;;
22995;SDS011;11664;49.774;8.650;2023-09-19T14:56:55;4.05;;;3.75;;
22995;SDS011;11664;49.774;8.650;2023-09-19T14:59:32;3.88;;;3.67;;
22995;SDS011;11664;49.774;8.650;2023-09-19T15:01:59;4.43;;;4.03;;
22995;SDS011;11664;49.774;8.650;2023-09-19T15:04:24;3.60;;;3.40;;
22995;SDS011;11664;49.774;8.650;2023-09-19T15:06:50;3.70;;;3.38;;
22995;SDS011;11664;49.774;8.650;2023-09-19T15:09:20;4.60;;;3.92;;
22995;SDS011;11664;49.774;8.650;2023-09-19T15:11:49;4.07;;;3.85;;
22995;SDS011;11664;49.774;8.650;2023-09-19T15:14:14;3.10;;;2.85;;
22995;SDS011;11664;49.774;8.650;2023-09-19T15:16:40;3.15;;;2.90;;
22995;SDS011;11664;49.774;8.650;2023-09-19T15:19:08;4.13;;;3.83;;
22995;SDS011;11664;49.774;8.650;2023-09-19T15:21:35;3.65;;;3.42;;
22995;SDS011;11664;49.774;8.650;2023-09-19T15:24:02;8.38;;;7.85;;
22995;SDS011;11664;49.774;8.650;2023-09-19T15:26:28;27.05;;;25.60;;
22995;SDS011;11664;49.774;8.650;2023-09-19T15:28:54;11.57;;;10.88;;
22995;SDS011;11664;49.774;8.650;2023-09-19T15:31:20;9.27;;;6.97;;
22995;SDS011;11664;49.774;8.650;2023-09-19T15:33:46;6.03;;;5.72;;
22995;SDS011;11664;49.774;8.650;2023-09-19T15:36:14;4.60;;;4.40;;
22995;SDS011;11664;49.774;8.650;2023-09-19T15:41:18;17.45;;;16.48;;
22995;SDS011;11664;49.774;8.650;2023-09-19T15:43:43;15.98;;;15.07;;
22995;SDS011;11664;49.774;8.650;2023-09-19T15:46:09;12.68;;;11.98;;
22995;SDS011;11664;49.774;8.650;2023-09-19T15:48:34;4.10;;;3.80;;
22995;SDS011;11664;49.774;8.650;2023-09-19T15:51:03;3.15;;;2.95;;
22995;SDS011;11664;49.774;8.650;2023-09-19T15:53:32;3.90;;;3.50;;
22995;SDS011;11664;49.774;8.650;2023-09-19T15:56:11;5.75;;;5.45;;
22995;SDS011;11664;49.774;8.650;2023-09-19T15:58:37;4.60;;;4.30;;
22995;SDS011;11664;49.774;8.650;2023-09-19T16:01:06;3.67;;;3.38;;